Time;durP1;ratioP1;P1;durP2;ratioP2;P2;SDS_P1;SDS_P2;PMS_P1;PMS_P2;Temp;Humidity;BMP_temperature;BMP_pressure;BME280_temperature;BME280_humidity;BME280_pressure;Samples;Min_cycle;Max_cycle;Signal;HPM_P1;HPM_P2
2021/04/28 08:01:58;;;;;;;4.25;2.95;;;21.30;60.30;;;;;;5009986;23;20719;-73
2021/04/28 08:04:25;;;;;;;6.38;3.17;;;20.40;60.90;;;;;;4956790;28;20204;-73
2021/04/28 08:06:51;;;;;;;5.03;3.17;;;20.20;62.90;;;;;;4955508;28;20219;-73
2021/04/28 08:09:18;;;;;;;6.07;3.03;;;20.40;62.00;;;;;;4956007;28;20248;-77
2021/04/28 08:11:44;;;;;;;4.28;3.25;;;20.10;63.30;;;;;;4951611;28;20205;-75
2021/04/28 08:14:10;;;;;;;4.45;3.30;;;19.80;63.00;;;;;;4936230;29;20248;-73
2021/04/28 08:16:37;;;;;;;6.25;3.67;;;19.00;64.80;;;;;;4954672;29;20219;-76
2021/04/28 08:19:05;;;;;;;6.30;3.83;;;19.50;63.70;;;;;;4955105;28;20243;-73
2021/04/28 08:21:32;;;;;;;5.00;3.33;;;19.60;64.00;;;;;;4953321;28;20571;-76
2021/04/28 08:23:59;;;;;;;5.20;3.33;;;19.20;64.80;;;;;;4936711;29;20227;-76
2021/04/28 08:26:25;;;;;;;4.78;2.90;;;19.50;63.90;;;;;;4953476;29;20208;-78
2021/04/28 08:28:51;;;;;;;9.50;4.00;;;19.90;64.80;;;;;;4955314;28;20228;-73
2021/04/28 08:31:19;;;;;;;4.93;3.28;;;19.60;65.00;;;;;;4955737;28;20595;-75
2021/04/28 08:33:46;;;;;;;6.40;3.55;;;19.90;64.50;;;;;;4935980;28;20580;-73
2021/04/28 08:36:14;;;;;;;4.18;3.05;;;19.60;64.40;;;;;;4951360;29;20215;-76
2021/04/28 08:38:40;;;;;;;6.55;3.50;;;20.00;64.60;;;;;;4955626;28;20227;-74
2021/04/28 08:41:09;;;;;;;5.43;3.67;;;20.20;62.80;;;;;;4955198;28;20211;-74
2021/04/28 08:43:36;;;;;;;4.85;3.28;;;20.00;63.10;;;;;;4937010;28;20678;-76
2021/04/28 08:46:03;;;;;;;4.68;3.40;;;19.30;64.00;;;;;;4950577;28;20222;-79
2021/04/28 08:48:30;;;;;;;4.88;3.20;;;19.40;65.50;;;;;;4953993;28;20227;-75
2021/04/28 08:50:57;;;;;;;5.60;3.40;;;20.10;63.70;;;;;;4955087;28;20208;-75
2021/04/28 08:53:27;;;;;;;5.57;3.20;;;20.30;63.00;;;;;;4938234;28;20315;-75
2021/04/28 08:55:53;;;;;;;5.95;3.55;;;20.30;64.90;;;;;;4946823;28;20238;-79
2021/04/28 08:58:20;;;;;;;7.93;3.83;;;21.00;63.00;;;;;;4953715;28;20307;-77
2021/04/28 09:00:47;;;;;;;6.95;3.78;;;20.50;63.00;;;;;;4936073;28;20216;-80
2021/04/28 09:03:16;;;;;;;6.25;3.28;;;21.10;62.60;;;;;;4943121;29;20218;-78
2021/04/28 09:05:44;;;;;;;5.43;3.63;;;21.70;61.60;;;;;;4955739;28;20220;-77
2021/04/28 09:08:11;;;;;;;7.43;3.75;;;21.30;62.60;;;;;;4956277;28;20571;-76
2021/04/28 09:10:40;;;;;;;5.88;3.53;;;21.50;61.60;;;;;;4956311;28;20377;-74
2021/04/28 09:13:08;;;;;;;6.80;3.88;;;21.30;62.60;;;;;;4954660;28;20215;-74
2021/04/28 09:15:40;;;;;;;7.13;3.97;;;20.70;62.50;;;;;;4955630;28;20250;-73
2021/04/28 09:18:08;;;;;;;5.63;3.72;;;20.50;64.00;;;;;;4956245;28;20235;-75
2021/04/28 09:20:37;;;;;;;6.47;3.80;;;20.20;64.30;;;;;;4955659;28;20730;-74
2021/04/28 09:23:10;;;;;;;6.75;3.58;;;20.70;63.50;;;;;;4956139;28;20212;-75
2021/04/28 09:25:42;;;;;;;9.38;3.85;;;21.20;62.70;;;;;;4956382;28;20259;-80
2021/04/28 09:28:27;;;;;;;6.22;3.85;;;21.00;62.60;;;;;;4955822;28;20247;-77
2021/04/28 09:31:12;;;;;;;7.50;3.67;;;20.80;63.50;;;;;;4956146;28;20612;-83
2021/04/28 09:33:49;;;;;;;8.32;3.53;;;21.40;63.60;;;;;;4955929;28;20204;-76
2021/04/28 09:36:16;;;;;;;5.00;3.85;;;21.50;62.10;;;;;;4955834;28;20207;-79
2021/04/28 09:38:49;;;;;;;6.93;4.10;;;21.60;62.80;;;;;;4955716;28;20238;-76
2021/04/28 09:41:31;;;;;;;7.70;4.28;;;21.50;62.30;;;;;;4955804;28;20619;-79
2021/04/28 09:43:57;;;;;;;6.03;4.22;;;20.90;64.20;;;;;;4955573;28;20607;-80
2021/04/28 09:46:23;;;;;;;5.65;3.97;;;19.90;65.90;;;;;;4955624;28;20251;-79
2021/04/28 09:49:00;;;;;;;5.63;3.88;;;19.60;67.00;;;;;;4955414;28;20295;-79
2021/04/28 09:51:34;;;;;;;5.75;3.97;;;19.60;65.80;;;;;;4955357;28;20207;-80
2021/04/28 09:54:11;;;;;;;7.82;4.28;;;19.60;66.80;;;;;;4955669;28;20208;-81
2021/04/28 09:56:39;;;;;;;6.10;4.30;;;18.90;67.50;;;;;;4955362;28;20227;-77
2021/04/28 09:59:05;;;;;;;7.60;4.37;;;18.40;69.20;;;;;;4955356;28;20773;-73
2021/04/28 10:01:33;;;;;;;9.17;4.63;;;18.40;68.40;;;;;;4955249;28;20220;-73
2021/04/28 10:04:00;;;;;;;8.03;3.80;;;18.30;70.20;;;;;;4955528;28;20208;-78
2021/04/28 10:06:43;;;;;;;6.20;4.37;;;18.10;69.30;;;;;;4955600;28;20216;-80
2021/04/28 10:09:31;;;;;;;6.23;3.97;;;18.00;71.00;;;;;;4955346;28;20231;-73
2021/04/28 10:11:59;;;;;;;6.97;3.97;;;18.30;70.30;;;;;;4954432;28;20212;-77
2021/04/28 10:14:27;;;;;;;7.03;4.60;;;18.40;69.80;;;;;;4955020;28;20306;-79
2021/04/28 10:16:55;;;;;;;11.80;4.33;;;18.10;70.30;;;;;;4955165;28;20211;-80
2021/04/28 10:19:24;;;;;;;8.00;4.67;;;17.90;70.80;;;;;;4955126;28;20270;-80
2021/04/28 10:21:51;;;;;;;9.33;4.30;;;17.90;70.60;;;;;;4954997;28;20311;-80
2021/04/28 10:24:19;;;;;;;9.30;4.50;;;18.00;70.60;;;;;;4954884;28;20595;-80
2021/04/28 10:26:47;;;;;;;9.73;4.70;;;18.20;70.20;;;;;;4955088;28;20279;-79
2021/04/28 10:29:18;;;;;;;7.03;4.43;;;17.90;70.90;;;;;;4955355;28;20319;-78
2021/04/28 10:31:46;;;;;;;6.57;4.03;;;18.00;70.90;;;;;;4955245;28;20208;-81
2021/04/28 10:34:16;;;;;;;6.53;4.03;;;18.00;70.60;;;;;;4954889;28;20306;-81
2021/04/28 10:36:43;;;;;;;8.07;4.43;;;18.20;69.70;;;;;;4958397;28;20212;-80
2021/04/28 10:39:10;;;;;;;11.57;4.80;;;18.20;69.80;;;;;;4956528;28;20236;-74
2021/04/28 10:41:41;;;;;;;9.63;4.60;;;18.40;68.40;;;;;;4957373;28;20204;-79
2021/04/28 10:44:46;;;;;;;8.87;4.00;;;18.50;69.40;;;;;;4956485;28;20207;-80
2021/04/28 10:47:41;;;;;;;7.67;4.27;;;18.10;69.20;;;;;;4955206;28;20244;-76
2021/04/28 10:50:20;;;;;;;6.43;4.03;;;18.40;70.90;;;;;;4955096;28;20623;-77
2021/04/28 10:52:51;;;;;;;6.77;4.70;;;18.40;69.40;;;;;;4955304;28;20212;-82
2021/04/28 10:55:41;;;;;;;11.00;4.97;;;18.40;68.00;;;;;;4954839;28;20318;-79
2021/04/28 10:58:47;;;;;;;7.83;4.73;;;18.60;68.40;;;;;;4955758;28;20243;-76
2021/04/28 11:01:38;;;;;;;10.87;5.20;;;18.80;70.00;;;;;;4954675;28;20208;-77
2021/04/28 11:04:12;;;;;;;8.53;4.73;;;18.80;68.60;;;;;;4954740;28;20203;-78
2021/04/28 11:06:44;;;;;;;7.37;4.80;;;18.50;69.10;;;;;;4954531;28;20689;-81
2021/04/28 11:09:28;;;;;;;8.27;4.43;;;18.30;69.30;;;;;;4954458;28;20228;-78
2021/04/28 11:12:00;;;;;;;7.67;5.00;;;18.40;70.60;;;;;;4954592;28;20207;-81
2021/04/28 11:14:48;;;;;;;8.97;5.13;;;18.70;69.50;;;;;;4955205;28;20638;-81
2021/04/28 11:17:26;;;;;;;8.70;4.10;;;18.90;68.10;;;;;;4954349;28;20336;-79
2021/04/28 11:19:53;;;;;;;7.83;4.10;;;19.10;66.10;;;;;;4954466;28;20278;-79
2021/04/28 11:22:27;;;;;;;7.53;3.93;;;19.20;63.40;;;;;;4954617;28;20212;-81
2021/04/28 11:25:04;;;;;;;7.37;3.80;;;18.80;62.90;;;;;;4959976;28;20211;-80
2021/04/28 11:28:01;;;;;;;7.97;4.37;;;18.60;63.70;;;;;;4958660;28;20603;-78
2021/04/28 11:30:41;;;;;;;9.37;4.77;;;18.60;62.40;;;;;;4959080;28;20678;-77
2021/04/28 11:33:41;;;;;;;7.43;4.60;;;18.40;63.60;;;;;;4957817;28;20243;-79
2021/04/28 11:36:17;;;;;;;9.30;4.23;;;18.80;64.00;;;;;;4956659;28;20247;-82
2021/04/28 11:38:46;;;;;;;10.03;5.40;;;19.10;63.00;;;;;;4957800;28;20236;-79
2021/04/28 11:41:14;;;;;;;6.73;3.90;;;19.20;63.90;;;;;;4958183;28;20204;-77
2021/04/28 11:43:43;;;;;;;12.23;4.70;;;19.30;64.10;;;;;;4957911;28;20577;-81
2021/04/28 11:46:12;;;;;;;7.27;4.23;;;19.40;64.10;;;;;;4958306;28;20302;-80
2021/04/28 11:48:39;;;;;;;7.93;4.60;;;19.40;63.90;;;;;;4957738;28;20234;-78
2021/04/28 11:51:09;;;;;;;8.27;4.53;;;19.20;62.50;;;;;;4958099;28;20208;-74
2021/04/28 11:53:41;;;;;;;7.20;3.93;;;18.60;62.00;;;;;;4958399;28;20216;-78
2021/04/28 11:56:07;;;;;;;10.13;5.00;;;18.50;63.70;;;;;;4957797;28;20232;-78
2021/04/28 11:58:33;;;;;;;8.43;4.37;;;18.60;63.00;;;;;;4957873;28;20228;-77
2021/04/28 12:01:03;;;;;;;7.40;4.20;;;18.60;63.00;;;;;;4957120;28;20578;-84
2021/04/28 12:03:29;;;;;;;6.23;4.00;;;18.50;63.10;;;;;;4956836;28;20212;-78
2021/04/28 12:05:55;;;;;;;10.50;5.00;;;18.70;63.40;;;;;;4957430;28;20207;-80
2021/04/28 12:08:23;;;;;;;11.20;5.53;;;18.90;62.70;;;;;;4957488;28;20251;-82
2021/04/28 12:10:54;;;;;;;10.10;5.70;;;19.30;62.70;;;;;;4957100;28;20547;-78
2021/04/28 12:13:21;;;;;;;7.67;4.20;;;19.40;62.90;;;;;;4957626;28;20595;-81
2021/04/28 12:15:54;;;;;;;9.13;4.97;;;19.40;64.10;;;;;;4957542;28;20239;-80
2021/04/28 12:18:38;;;;;;;7.27;4.50;;;19.60;62.50;;;;;;4957541;28;20224;-82
2021/04/28 12:21:05;;;;;;;8.23;4.40;;;19.50;63.00;;;;;;4957621;28;20204;-76
2021/04/28 12:23:32;;;;;;;7.83;4.43;;;19.30;64.40;;;;;;4957592;28;20251;-76
2021/04/28 12:26:06;;;;;;;9.53;5.03;;;19.30;63.80;;;;;;4957831;28;20216;-78
2021/04/28 12:28:32;;;;;;;9.07;5.17;;;19.40;64.50;;;;;;4957376;28;20232;-82
2021/04/28 12:30:59;;;;;;;8.07;4.70;;;19.40;63.80;;;;;;4957557;28;20208;-82
2021/04/28 12:33:25;;;;;;;9.37;5.13;;;19.50;63.20;;;;;;4956682;28;20212;-78
2021/04/28 12:35:51;;;;;;;10.90;5.13;;;19.60;63.50;;;;;;4957311;28;20239;-82
2021/04/28 12:38:17;;;;;;;9.90;5.43;;;19.60;62.10;;;;;;4957242;28;20709;-77
2021/04/28 12:40:49;;;;;;;12.50;4.97;;;19.70;62.20;;;;;;4957603;28;20212;-77
2021/04/28 12:43:17;;;;;;;9.27;4.50;;;20.00;63.10;;;;;;4957116;28;20212;-74
2021/04/28 12:45:44;;;;;;;9.03;4.90;;;20.00;62.30;;;;;;4957374;28;20282;-74
2021/04/28 12:48:12;;;;;;;7.43;4.60;;;20.10;62.30;;;;;;4956451;28;20228;-73
2021/04/28 12:50:39;;;;;;;7.73;4.53;;;20.20;61.90;;;;;;4956696;28;20216;-75
2021/04/28 12:53:08;;;;;;;10.43;4.40;;;20.30;61.90;;;;;;4956905;28;20212;-76
2021/04/28 12:55:40;;;;;;;9.60;4.07;;;20.00;63.10;;;;;;4956730;28;20240;-73
2021/04/28 12:58:10;;;;;;;9.03;4.43;;;20.10;63.50;;;;;;4956455;28;20282;-73
2021/04/28 13:00:45;;;;;;;7.30;3.90;;;19.90;62.00;;;;;;4956753;28;20283;-75
2021/04/28 13:03:14;;;;;;;10.95;4.53;;;20.10;63.10;;;;;;4956009;28;20219;-79
2021/04/28 13:05:43;;;;;;;8.93;4.80;;;20.30;62.50;;;;;;4956447;28;20571;-77
2021/04/28 13:08:24;;;;;;;8.10;4.25;;;20.50;61.60;;;;;;4956667;28;20243;-74
2021/04/28 13:11:14;;;;;;;8.38;4.57;;;20.60;60.70;;;;;;4956568;28;20286;-78
2021/04/28 13:13:45;;;;;;;7.57;3.65;;;20.90;60.50;;;;;;4957281;28;20247;-83
2021/04/28 13:16:32;;;;;;;7.32;4.07;;;21.10;60.50;;;;;;4956653;28;20564;-75
2021/04/28 13:18:59;;;;;;;5.82;3.58;;;21.40;61.20;;;;;;4956287;28;20232;-76
2021/04/28 13:21:27;;;;;;;9.50;3.90;;;21.50;61.50;;;;;;4956811;28;20215;-83
2021/04/28 13:24:01;;;;;;;7.93;3.95;;;21.60;59.90;;;;;;4956318;28;20671;-82
2021/04/28 13:26:28;;;;;;;8.50;4.22;;;21.90;61.00;;;;;;4956552;28;20216;-83
2021/04/28 13:28:57;;;;;;;7.32;3.20;;;22.00;60.00;;;;;;4956092;28;20721;-81
2021/04/28 13:31:24;;;;;;;7.50;4.03;;;21.90;60.20;;;;;;4956080;28;20214;-82
2021/04/28 13:33:52;;;;;;;8.43;3.90;;;22.00;60.20;;;;;;4956256;28;20247;-82
2021/04/28 13:36:31;;;;;;;8.00;4.25;;;22.20;59.70;;;;;;4956287;28;20256;-81
2021/04/28 13:39:01;;;;;;;7.85;4.20;;;22.30;58.90;;;;;;4955932;28;20235;-82
2021/04/28 13:41:28;;;;;;;6.38;3.85;;;22.30;59.20;;;;;;4955956;28;20211;-83
2021/04/28 13:43:55;;;;;;;6.68;4.00;;;22.10;57.90;;;;;;4956000;28;20204;-83
2021/04/28 13:46:22;;;;;;;7.75;4.03;;;22.50;58.50;;;;;;4955144;28;20216;-75
2021/04/28 13:48:49;;;;;;;9.82;4.00;;;22.90;59.30;;;;;;4959668;28;20286;-79
2021/04/28 13:51:15;;;;;;;8.02;3.58;;;23.10;58.90;;;;;;4954920;29;20247;-75
2021/04/28 13:53:42;;;;;;;7.82;3.58;;;23.20;59.60;;;;;;4955901;28;20215;-83
2021/04/28 13:56:08;;;;;;;7.40;3.35;;;22.70;57.80;;;;;;4955446;28;20710;-83
2021/04/28 13:58:35;;;;;;;5.53;3.47;;;22.70;58.40;;;;;;4956328;28;20766;-79
2021/04/28 14:01:02;;;;;;;8.80;4.38;;;22.70;56.90;;;;;;4954803;28;20570;-83
2021/04/28 14:03:28;;;;;;;8.80;4.65;;;22.70;58.10;;;;;;4957178;28;20216;-83
2021/04/28 14:05:55;;;;;;;7.63;4.65;;;22.60;57.80;;;;;;4955530;28;20223;-75
2021/04/28 14:08:21;;;;;;;8.13;4.28;;;22.50;58.60;;;;;;4955319;28;20314;-80
2021/04/28 14:10:48;;;;;;;9.73;5.57;;;22.50;57.70;;;;;;4944276;28;20209;-83
2021/04/28 14:13:14;;;;;;;13.55;5.35;;;22.60;58.00;;;;;;4935915;29;20216;-82
2021/04/28 14:15:40;;;;;;;13.00;5.07;;;22.50;57.50;;;;;;4935649;29;20592;-84
2021/04/28 14:18:07;;;;;;;14.05;4.65;;;22.50;58.80;;;;;;4937884;29;20255;-79
2021/04/28 14:20:33;;;;;;;10.35;5.13;;;22.50;59.40;;;;;;4946192;28;20213;-79
2021/04/28 14:23:00;;;;;;;9.18;5.15;;;22.60;59.00;;;;;;4935671;29;20209;-83
2021/04/28 14:25:27;;;;;;;9.32;4.90;;;22.60;58.30;;;;;;4936090;29;20240;-84
2021/04/28 14:27:53;;;;;;;8.88;4.93;;;22.70;58.80;;;;;;4935803;29;20229;-79
2021/04/28 14:30:22;;;;;;;9.63;5.07;;;22.60;61.60;;;;;;4935343;29;20205;-84
2021/04/28 14:32:49;;;;;;;10.65;5.72;;;22.70;59.80;;;;;;4935825;29;20224;-77
2021/04/28 14:35:16;;;;;;;8.60;5.45;;;22.70;59.10;;;;;;4935567;29;20732;-76
2021/04/28 14:37:43;;;;;;;10.20;5.93;;;22.80;57.60;;;;;;4935418;29;20575;-80
2021/04/28 14:40:10;;;;;;;9.65;5.45;;;22.70;58.00;;;;;;4935674;29;20205;-79
2021/04/28 14:42:36;;;;;;;14.65;5.47;;;22.70;59.40;;;;;;4935922;29;20212;-77
2021/04/28 14:45:03;;;;;;;12.85;6.43;;;22.60;61.60;;;;;;4936019;29;20219;-84
2021/04/28 14:47:29;;;;;;;9.98;5.95;;;22.60;57.70;;;;;;4935550;29;20667;-77
2021/04/28 14:49:56;;;;;;;14.43;6.70;;;22.60;58.20;;;;;;4935547;29;20221;-78
2021/04/28 14:52:23;;;;;;;18.20;6.32;;;22.70;59.40;;;;;;4935736;29;20635;-76
2021/04/28 14:54:50;;;;;;;15.32;6.75;;;22.70;59.90;;;;;;4939108;29;20227;-83
2021/04/28 14:57:16;;;;;;;9.00;6.00;;;22.70;57.90;;;;;;4956560;28;20219;-80
2021/04/28 14:59:43;;;;;;;9.52;5.13;;;22.70;59.00;;;;;;4940642;28;20579;-80
2021/04/28 15:02:10;;;;;;;10.05;5.93;;;22.70;59.10;;;;;;4939285;29;20537;-81
2021/04/28 15:04:36;;;;;;;10.15;5.80;;;22.60;58.20;;;;;;4939187;29;20682;-79
2021/04/28 15:07:03;;;;;;;10.70;6.07;;;22.60;57.90;;;;;;4939456;29;20236;-77
2021/04/28 15:09:30;;;;;;;11.77;6.28;;;22.60;57.50;;;;;;4939467;29;20235;-82
2021/04/28 15:11:56;;;;;;;11.27;5.65;;;22.40;58.50;;;;;;4939435;29;20254;-83
2021/04/28 15:14:22;;;;;;;10.43;5.47;;;22.10;57.30;;;;;;4939395;29;20208;-80
2021/04/28 15:16:49;;;;;;;11.60;5.18;;;22.10;58.00;;;;;;4939284;29;20267;-83
2021/04/28 15:19:15;;;;;;;10.43;5.80;;;22.10;58.20;;;;;;4939056;29;20228;-83
2021/04/28 15:21:42;;;;;;;11.38;5.43;;;21.90;57.70;;;;;;4939196;29;20208;-83
2021/04/28 15:24:09;;;;;;;10.10;5.10;;;21.70;58.30;;;;;;4939113;29;20304;-80
2021/04/28 15:26:36;;;;;;;8.90;5.50;;;21.60;58.90;;;;;;4938792;29;20264;-83
2021/04/28 15:29:03;;;;;;;10.20;5.25;;;21.80;58.30;;;;;;4938870;29;20584;-81
2021/04/28 15:31:31;;;;;;;11.32;6.10;;;21.80;59.40;;;;;;4939376;29;20213;-83
2021/04/28 15:33:57;;;;;;;10.80;5.65;;;22.00;58.30;;;;;;4938736;29;20302;-84
2021/04/28 15:36:24;;;;;;;10.40;5.70;;;22.00;57.70;;;;;;4939033;29;20291;-82
2021/04/28 15:38:52;;;;;;;11.65;5.32;;;22.10;57.70;;;;;;4938562;29;20628;-81
2021/04/28 15:41:19;;;;;;;12.82;5.68;;;22.20;57.70;;;;;;4938559;29;20215;-79
2021/04/28 15:43:46;;;;;;;9.27;5.05;;;22.20;57.40;;;;;;4938833;29;20220;-83
2021/04/28 15:46:12;;;;;;;11.10;5.38;;;22.20;58.50;;;;;;4938894;29;20213;-81
2021/04/28 15:48:39;;;;;;;11.82;5.25;;;22.30;60.00;;;;;;4937874;29;20224;-73
2021/04/28 15:51:06;;;;;;;10.45;5.72;;;22.20;59.80;;;;;;4938066;29;20213;-80
2021/04/28 15:53:32;;;;;;;11.32;5.60;;;22.00;59.40;;;;;;4937743;28;20263;-75
2021/04/28 15:55:58;;;;;;;11.95;6.00;;;21.90;60.20;;;;;;4939000;28;20692;-76
2021/04/28 15:58:25;;;;;;;12.90;6.00;;;21.80;59.80;;;;;;4945844;29;20694;-74
2021/04/28 16:00:52;;;;;;;12.18;6.15;;;21.80;60.10;;;;;;4939386;29;20233;-78
2021/04/28 16:03:18;;;;;;;10.68;5.90;;;21.50;60.40;;;;;;4950575;29;20283;-75
2021/04/28 16:05:44;;;;;;;10.20;6.25;;;21.40;63.20;;;;;;4946702;29;20259;-78
2021/04/28 16:08:10;;;;;;;13.77;5.65;;;21.50;61.60;;;;;;4953066;28;20704;-75
2021/04/28 16:10:37;;;;;;;11.02;5.97;;;21.60;60.90;;;;;;4943214;29;20244;-74
2021/04/28 16:13:03;;;;;;;11.40;5.75;;;21.60;61.20;;;;;;4950605;28;20210;-74
2021/04/28 16:15:29;;;;;;;10.77;5.78;;;21.60;60.70;;;;;;4954537;28;20246;-74
2021/04/28 16:17:56;;;;;;;11.90;5.88;;;21.60;60.50;;;;;;4946736;28;20224;-80
2021/04/28 16:20:23;;;;;;;11.88;5.60;;;21.50;61.00;;;;;;4951064;28;20208;-76
2021/04/28 16:22:49;;;;;;;15.15;6.65;;;21.50;59.60;;;;;;4948947;28;20935;-74
2021/04/28 16:25:15;;;;;;;15.43;8.25;;;21.40;60.20;;;;;;4945531;29;20209;-75
2021/04/28 16:27:42;;;;;;;9.45;5.53;;;21.40;60.20;;;;;;4950761;28;20263;-74
2021/04/28 16:30:09;;;;;;;9.60;5.00;;;21.40;60.70;;;;;;4948498;28;20292;-75
2021/04/28 16:32:36;;;;;;;9.50;5.47;;;21.40;61.20;;;;;;4950039;29;20212;-74
2021/04/28 16:35:03;;;;;;;9.65;5.05;;;21.40;59.80;;;;;;4947584;29;20232;-73
2021/04/28 16:37:30;;;;;;;9.82;5.10;;;21.30;59.80;;;;;;4943902;29;20205;-80
2021/04/28 16:39:56;;;;;;;9.80;5.50;;;21.30;60.40;;;;;;4949783;29;20291;-77
2021/04/28 16:42:22;;;;;;;9.83;5.43;;;21.20;60.60;;;;;;4942791;29;20205;-74
2021/04/28 16:44:50;;;;;;;10.53;5.60;;;21.00;60.10;;;;;;4952286;28;20212;-75
2021/04/28 16:47:17;;;;;;;11.23;6.47;;;21.00;61.60;;;;;;4947045;28;20568;-74
2021/04/28 16:49:43;;;;;;;14.27;6.53;;;20.70;64.30;;;;;;4947897;28;20227;-75
2021/04/28 16:52:10;;;;;;;12.60;7.67;;;20.40;65.70;;;;;;4955885;28;20212;-75
2021/04/28 16:54:36;;;;;;;13.33;7.13;;;20.10;67.00;;;;;;4955479;28;20215;-82
2021/04/28 16:57:03;;;;;;;14.30;7.43;;;19.90;67.70;;;;;;4955503;28;20212;-85
2021/04/28 16:59:29;;;;;;;18.83;7.70;;;19.70;68.50;;;;;;4954938;28;20255;-78
2021/04/28 17:01:55;;;;;;;14.87;7.07;;;19.40;68.90;;;;;;4956427;28;20228;-78
2021/04/28 17:04:22;;;;;;;13.30;7.27;;;19.30;68.70;;;;;;4956689;28;20212;-84
2021/04/28 17:06:48;;;;;;;13.03;7.27;;;19.30;69.20;;;;;;4956427;28;20215;-80
2021/04/28 17:09:15;;;;;;;12.93;7.30;;;19.20;69.70;;;;;;4956960;28;20228;-80
2021/04/28 17:11:41;;;;;;;12.70;7.40;;;19.20;69.80;;;;;;4956538;28;20219;-81
2021/04/28 17:14:08;;;;;;;11.97;7.07;;;19.20;70.30;;;;;;4956264;28;20204;-82
2021/04/28 17:16:34;;;;;;;11.87;6.40;;;19.20;70.40;;;;;;4955996;28;20269;-82
2021/04/28 17:19:00;;;;;;;12.40;6.53;;;19.00;70.20;;;;;;4956069;28;20228;-76
2021/04/28 17:21:26;;;;;;;11.97;7.30;;;19.00;70.50;;;;;;4956307;28;20208;-85
2021/04/28 17:23:52;;;;;;;14.03;7.13;;;19.10;71.20;;;;;;4956465;28;20216;-77
2021/04/28 17:26:19;;;;;;;12.93;7.30;;;19.00;70.60;;;;;;4956648;28;20212;-78
2021/04/28 17:28:46;;;;;;;13.37;6.67;;;18.90;71.40;;;;;;4959801;28;20236;-82
2021/04/28 17:31:12;;;;;;;12.13;7.00;;;18.90;71.40;;;;;;4955953;28;20212;-80
2021/04/28 17:33:40;;;;;;;13.77;8.10;;;18.80;71.90;;;;;;4955981;28;20762;-82
2021/04/28 17:36:06;;;;;;;11.30;6.80;;;18.70;71.60;;;;;;4956177;28;20615;-81
2021/04/28 17:38:33;;;;;;;12.73;6.60;;;18.70;72.30;;;;;;4956159;28;20275;-81
2021/04/28 17:41:00;;;;;;;13.63;7.13;;;18.70;72.70;;;;;;4955995;28;20215;-82
2021/04/28 17:43:27;;;;;;;13.60;6.83;;;18.60;72.50;;;;;;4955775;28;20218;-82
2021/04/28 17:45:53;;;;;;;12.53;7.13;;;18.40;72.40;;;;;;4955670;28;20212;-84
2021/04/28 17:48:19;;;;;;;13.47;7.10;;;18.40;73.30;;;;;;4955523;28;20231;-83
2021/04/28 17:50:46;;;;;;;13.93;7.60;;;18.30;73.00;;;;;;4955931;28;20212;-80
2021/04/28 17:53:12;;;;;;;12.90;7.20;;;18.20;72.80;;;;;;4955412;28;20208;-81
2021/04/28 17:55:38;;;;;;;14.37;7.27;;;18.20;73.10;;;;;;4955839;28;20239;-80
2021/04/28 17:58:04;;;;;;;12.80;7.33;;;18.10;72.90;;;;;;4955319;28;20232;-81
2021/04/28 18:00:31;;;;;;;13.47;7.07;;;18.00;73.40;;;;;;4955504;28;20599;-82
2021/04/28 18:02:58;;;;;;;13.93;7.10;;;17.80;73.30;;;;;;4955018;28;20224;-76
2021/04/28 18:05:24;;;;;;;14.43;6.83;;;17.80;73.20;;;;;;4955382;28;20738;-81
2021/04/28 18:07:50;;;;;;;14.03;6.80;;;17.60;73.70;;;;;;4955178;28;20612;-75
2021/04/28 18:10:17;;;;;;;10.40;6.37;;;17.40;74.40;;;;;;4955616;28;20207;-75
2021/04/28 18:12:44;;;;;;;13.27;6.90;;;17.40;74.80;;;;;;4955696;28;20218;-80
2021/04/28 18:15:11;;;;;;;10.80;6.20;;;17.50;75.40;;;;;;4955258;28;20232;-81
2021/04/28 18:17:38;;;;;;;10.47;6.50;;;17.50;75.80;;;;;;4954959;28;20212;-81
2021/04/28 18:20:06;;;;;;;11.93;6.47;;;17.30;76.10;;;;;;4954976;28;20208;-82
2021/04/28 18:22:38;;;;;;;13.40;7.10;;;17.30;76.30;;;;;;4955088;28;20212;-81
2021/04/28 18:25:06;;;;;;;15.77;6.73;;;17.10;76.50;;;;;;4955146;28;20208;-82
2021/04/28 18:27:35;;;;;;;11.57;6.10;;;17.10;76.70;;;;;;4954858;28;20212;-82
2021/04/28 18:30:01;;;;;;;14.40;6.07;;;17.10;76.60;;;;;;4954620;28;20885;-82
2021/04/28 18:32:28;;;;;;;12.60;6.57;;;17.10;76.60;;;;;;4952238;28;20211;-76
2021/04/28 18:34:55;;;;;;;11.73;5.83;;;17.10;76.50;;;;;;4968396;28;20201;-79
2021/04/28 18:37:21;;;;;;;14.40;6.13;;;17.00;76.70;;;;;;4965108;28;20203;-78
2021/04/28 18:39:47;;;;;;;14.37;6.20;;;17.00;76.90;;;;;;4971295;28;20234;-78
2021/04/28 18:42:14;;;;;;;11.20;6.03;;;16.90;77.30;;;;;;4971434;28;20207;-77
2021/04/28 18:44:40;;;;;;;12.67;5.97;;;16.60;77.50;;;;;;4973746;28;20210;-78
2021/04/28 18:47:06;;;;;;;11.47;6.07;;;16.70;77.70;;;;;;4973927;28;20554;-79
2021/04/28 18:49:32;;;;;;;10.83;6.43;;;16.50;77.90;;;;;;4974094;28;20231;-78
2021/04/28 18:51:59;;;;;;;11.00;5.93;;;16.50;77.70;;;;;;4974467;28;20235;-78
2021/04/28 18:54:26;;;;;;;13.03;6.80;;;16.50;77.20;;;;;;4974313;28;20219;-78
2021/04/28 18:56:52;;;;;;;12.33;5.87;;;16.50;77.30;;;;;;4973531;28;20705;-79
2021/04/28 18:59:18;;;;;;;10.30;5.57;;;16.40;76.80;;;;;;4973204;28;20223;-78
2021/04/28 19:01:44;;;;;;;10.37;5.37;;;16.40;77.20;;;;;;4947636;28;20292;-76
2021/04/28 19:04:11;;;;;;;14.67;6.03;;;16.20;77.50;;;;;;4942980;28;20205;-78
2021/04/28 19:06:37;;;;;;;12.17;5.67;;;16.10;77.30;;;;;;4947282;29;20213;-75
2021/04/28 19:09:05;;;;;;;10.80;5.87;;;16.10;77.80;;;;;;4938930;28;20228;-79
2021/04/28 19:11:31;;;;;;;13.13;6.00;;;16.00;77.80;;;;;;4938495;29;20213;-76
2021/04/28 19:13:58;;;;;;;12.27;5.83;;;16.10;78.00;;;;;;4943607;28;20656;-74
2021/04/28 19:16:24;;;;;;;9.20;5.07;;;16.10;78.00;;;;;;4948467;29;20236;-77
2021/04/28 19:18:51;;;;;;;11.83;5.70;;;16.10;78.60;;;;;;4946870;28;20232;-77
2021/04/28 19:21:17;;;;;;;9.57;5.57;;;16.00;80.40;;;;;;4941462;29;20313;-77
2021/04/28 19:23:43;;;;;;;10.90;5.80;;;15.90;78.60;;;;;;4943074;29;20216;-77
2021/04/28 19:26:11;;;;;;;9.70;5.50;;;15.80;79.30;;;;;;4936610;29;20209;-77
2021/04/28 19:28:40;;;;;;;9.80;5.60;;;15.50;79.80;;;;;;4949580;29;20239;-77
2021/04/28 19:31:06;;;;;;;10.80;5.80;;;15.60;79.90;;;;;;4943653;28;20655;-78
2021/04/28 19:33:33;;;;;;;12.87;5.80;;;15.50;80.20;;;;;;4940710;28;20221;-78
2021/04/28 19:35:59;;;;;;;9.00;4.73;;;15.40;80.60;;;;;;4943438;28;20251;-78
2021/04/28 19:38:25;;;;;;;10.77;5.67;;;15.40;81.30;;;;;;4940159;29;20231;-77
2021/04/28 19:40:51;;;;;;;11.90;5.83;;;15.60;80.80;;;;;;4939668;28;20208;-77
2021/04/28 19:43:18;;;;;;;11.27;5.60;;;15.80;80.20;;;;;;4940343;29;20201;-77
2021/04/28 19:45:45;;;;;;;10.70;5.10;;;15.90;79.80;;;;;;4945779;29;20216;-78
2021/04/28 19:48:11;;;;;;;9.77;5.83;;;15.90;79.90;;;;;;4954448;29;20224;-75
2021/04/28 19:50:38;;;;;;;14.00;5.53;;;15.80;80.20;;;;;;4944316;28;20216;-78
2021/04/28 19:53:05;;;;;;;10.73;5.57;;;15.70;81.50;;;;;;4948384;29;20251;-76
2021/04/28 19:55:31;;;;;;;10.43;5.40;;;15.50;81.40;;;;;;4954086;28;20272;-77
2021/04/28 19:57:57;;;;;;;11.63;5.23;;;15.50;81.40;;;;;;4951029;28;20228;-78
2021/04/28 20:00:25;;;;;;;10.03;5.17;;;15.30;83.50;;;;;;4951583;28;20208;-76
2021/04/28 20:02:51;;;;;;;12.27;5.20;;;15.20;83.30;;;;;;4943687;28;20219;-77
2021/04/28 20:05:18;;;;;;;9.10;5.13;;;15.10;84.10;;;;;;4942890;29;20664;-77
2021/04/28 20:07:44;;;;;;;9.03;5.13;;;15.10;84.30;;;;;;4941193;29;20246;-77
2021/04/28 20:10:11;;;;;;;10.90;5.17;;;15.10;85.80;;;;;;4943762;28;20215;-77
2021/04/28 20:12:37;;;;;;;9.37;4.70;;;15.00;86.00;;;;;;4941838;29;20700;-77
2021/04/28 20:15:05;;;;;;;11.03;5.50;;;14.90;86.80;;;;;;4943203;29;20208;-76
2021/04/28 20:17:35;;;;;;;7.57;4.63;;;14.80;84.70;;;;;;4943044;29;20221;-75
2021/04/28 20:20:01;;;;;;;9.87;4.57;;;14.90;87.30;;;;;;4945228;29;20200;-78
2021/04/28 20:22:27;;;;;;;9.33;6.13;;;14.80;88.90;;;;;;4942749;29;20219;-75
2021/04/28 20:24:54;;;;;;;8.63;4.57;;;14.80;89.40;;;;;;4943490;28;20200;-75
2021/04/28 20:27:20;;;;;;;8.63;4.80;;;14.70;90.20;;;;;;4945201;28;20216;-77
2021/04/28 20:29:47;;;;;;;10.07;5.10;;;14.60;90.60;;;;;;4944225;28;20228;-77
2021/04/28 20:32:13;;;;;;;8.20;5.03;;;14.60;90.70;;;;;;4938013;29;20220;-74
2021/04/28 20:34:42;;;;;;;10.30;4.60;;;14.40;90.90;;;;;;4946986;29;20212;-78
2021/04/28 20:37:08;;;;;;;10.17;4.70;;;14.40;91.30;;;;;;4941602;28;20235;-77
2021/04/28 20:39:34;;;;;;;9.17;4.90;;;14.40;91.30;;;;;;4942143;29;20259;-78
2021/04/28 20:42:00;;;;;;;9.17;5.00;;;14.50;91.30;;;;;;4942669;29;20212;-78
2021/04/28 20:44:27;;;;;;;13.93;4.87;;;14.60;91.50;;;;;;4944900;29;20205;-77
2021/04/28 20:46:53;;;;;;;15.43;5.67;;;14.60;91.40;;;;;;4940688;28;20223;-78
2021/04/28 20:49:20;;;;;;;9.87;5.13;;;14.70;91.40;;;;;;4937673;29;20233;-78
2021/04/28 20:51:48;;;;;;;8.70;4.97;;;14.70;91.30;;;;;;4944818;28;20209;-76